createdAt,value
2022-10-31T00:01:32.790Z,4.03
2022-10-31T00:04:01.668Z,4.07
2022-10-31T00:06:30.229Z,4.72
2022-10-31T00:09:02.117Z,4.57
2022-10-31T00:11:36.464Z,3.78
2022-10-31T00:14:04.276Z,4.22
2022-10-31T00:16:34.638Z,3.88
2022-10-31T00:19:06.644Z,4.35
2022-10-31T00:21:36.807Z,4.75
2022-10-31T00:24:05.919Z,4.22
2022-10-31T00:26:33.458Z,4.38
2022-10-31T00:29:01.492Z,4.57
2022-10-31T00:31:29.643Z,4.50
2022-10-31T00:33:59.695Z,4.22
2022-10-31T00:36:27.242Z,4.97
2022-10-31T00:38:54.448Z,4.63
2022-10-31T00:41:22.145Z,4.80
2022-10-31T00:43:49.384Z,4.70
2022-10-31T00:46:16.856Z,4.60
2022-10-31T00:48:44.183Z,4.65
2022-10-31T00:51:11.752Z,4.00
2022-10-31T00:53:39.203Z,3.95
2022-10-31T00:56:06.874Z,3.72
2022-10-31T00:58:34.475Z,4.30
2022-10-31T01:01:01.778Z,4.32
2022-10-31T01:03:31.796Z,3.78
2022-10-31T01:06:01.175Z,3.97
2022-10-31T01:08:32.161Z,4.05
2022-10-31T01:11:02.496Z,4.10
2022-10-31T01:13:30.112Z,3.92
2022-10-31T01:16:02.188Z,4.07
2022-10-31T01:18:29.985Z,3.80
2022-10-31T01:21:07.769Z,3.47
2022-10-31T01:23:38.862Z,4.38
2022-10-31T01:26:06.138Z,4.43
2022-10-31T01:28:34.238Z,4.32
2022-10-31T01:31:08.010Z,4.50
2022-10-31T01:33:36.249Z,4.47
2022-10-31T01:36:32.611Z,4.40
2022-10-31T01:39:07.052Z,4.10
2022-10-31T01:41:38.277Z,4.50
2022-10-31T01:44:14.530Z,4.18
2022-10-31T01:46:50.329Z,3.53
2022-10-31T01:49:27.178Z,4.75
2022-10-31T01:52:00.716Z,4.40
2022-10-31T01:54:35.863Z,4.68
2022-10-31T01:57:04.533Z,5.30
2022-10-31T01:59:33.773Z,4.65
2022-10-31T02:02:01.175Z,7.78
2022-10-31T02:04:29.065Z,5.18
2022-10-31T02:07:06.438Z,4.72
2022-10-31T02:09:34.541Z,4.88
2022-10-31T02:12:06.852Z,4.97
2022-10-31T02:14:36.221Z,5.30
2022-10-31T02:17:04.761Z,5.30
2022-10-31T02:19:55.032Z,5.05
2022-10-31T02:22:42.745Z,5.28
2022-10-31T02:25:34.415Z,5.07
2022-10-31T02:28:20.052Z,5.53
2022-10-31T02:31:24.937Z,5.18
2022-10-31T02:34:14.017Z,5.00
2022-10-31T02:37:08.123Z,6.25
2022-10-31T02:39:42.373Z,5.93
2022-10-31T02:42:19.947Z,6.85
2022-10-31T02:45:00.463Z,6.25
2022-10-31T02:47:34.890Z,6.60
2022-10-31T02:50:25.257Z,6.07
2022-10-31T02:52:53.684Z,7.03
2022-10-31T02:55:23.913Z,6.85
2022-10-31T02:57:53.747Z,8.07
2022-10-31T03:00:23.141Z,7.45
2022-10-31T03:03:08.959Z,8.05
2022-10-31T03:06:09.525Z,7.80
2022-10-31T03:08:47.300Z,8.02
2022-10-31T03:11:16.141Z,8.25
2022-10-31T03:13:47.370Z,8.52
2022-10-31T03:16:18.353Z,9.00
2022-10-31T03:19:25.967Z,8.40
2022-10-31T03:21:54.655Z,8.65
2022-10-31T03:24:25.089Z,8.10
2022-10-31T03:26:54.739Z,7.70
2022-10-31T03:29:26.260Z,8.38
2022-10-31T03:32:14.670Z,8.95
2022-10-31T03:34:43.070Z,8.10
2022-10-31T03:37:12.985Z,7.90
2022-10-31T03:39:42.603Z,9.65
2022-10-31T03:42:13.995Z,8.80
2022-10-31T03:44:46.208Z,8.88
2022-10-31T03:47:13.974Z,9.05
2022-10-31T03:49:42.052Z,9.05
2022-10-31T03:52:29.774Z,9.40
2022-10-31T03:55:21.555Z,10.05
2022-10-31T03:58:00.936Z,9.68
2022-10-31T04:00:31.633Z,9.45
2022-10-31T04:03:26.722Z,10.73
2022-10-31T04:05:56.472Z,11.25
2022-10-31T04:08:29.258Z,11.10
2022-10-31T04:10:58.758Z,10.88
2022-10-31T04:13:31.669Z,10.40
2022-10-31T04:15:59.205Z,10.88
2022-10-31T04:18:27.046Z,10.38
2022-10-31T04:21:07.149Z,9.18
2022-10-31T04:23:35.722Z,8.75
2022-10-31T04:26:04.068Z,8.45
2022-10-31T04:28:31.388Z,8.43
2022-10-31T04:30:58.608Z,8.57
2022-10-31T04:33:25.784Z,8.70
2022-10-31T04:35:53.540Z,8.68
2022-10-31T04:38:20.885Z,9.18
2022-10-31T04:40:49.305Z,9.55
2022-10-31T04:43:16.596Z,8.63
2022-10-31T04:45:44.383Z,8.82
2022-10-31T04:48:12.049Z,7.60
2022-10-31T04:50:39.833Z,7.28
2022-10-31T04:53:07.333Z,6.43
2022-10-31T04:55:37.241Z,7.55
2022-10-31T04:58:04.925Z,7.03
2022-10-31T05:00:32.616Z,6.85
2022-10-31T05:03:00.576Z,6.43
2022-10-31T05:05:32.242Z,6.38
2022-10-31T05:08:00.728Z,5.40
2022-10-31T05:10:31.802Z,4.47
2022-10-31T05:13:04.756Z,5.20
2022-10-31T05:15:32.596Z,4.53
2022-10-31T05:18:00.616Z,4.30
2022-10-31T05:20:30.029Z,4.55
2022-10-31T05:22:58.268Z,5.45
2022-10-31T05:25:38.396Z,4.75
2022-10-31T05:28:08.735Z,5.43
2022-10-31T05:30:36.046Z,5.07
2022-10-31T05:33:04.116Z,6.72
2022-10-31T05:35:33.484Z,6.30
2022-10-31T05:38:01.048Z,5.97
2022-10-31T05:40:28.683Z,6.57
2022-10-31T05:42:57.535Z,5.82
2022-10-31T05:45:25.497Z,5.50
2022-10-31T05:47:57.219Z,5.78
2022-10-31T05:50:26.096Z,5.72
2022-10-31T05:52:59.192Z,5.20
2022-10-31T05:55:26.996Z,6.15
2022-10-31T05:57:55.138Z,6.68
2022-10-31T06:00:23.723Z,6.88
2022-10-31T06:02:59.361Z,7.10
2022-10-31T06:05:27.009Z,6.93
2022-10-31T06:07:54.403Z,6.85
2022-10-31T06:10:24.174Z,7.07
2022-10-31T06:12:51.536Z,5.20
2022-10-31T06:15:23.424Z,5.55
2022-10-31T06:18:05.402Z,5.22
2022-10-31T06:20:33.711Z,5.47
2022-10-31T06:23:03.169Z,5.63
2022-10-31T06:25:31.070Z,5.07
2022-10-31T06:27:59.233Z,4.68
2022-10-31T06:30:26.588Z,6.82
2022-10-31T06:32:54.276Z,5.88
2022-10-31T06:35:21.990Z,5.35
2022-10-31T06:37:55.924Z,4.78
2022-10-31T06:40:23.533Z,4.97
2022-10-31T06:43:00.770Z,5.07
2022-10-31T06:45:28.242Z,5.30
2022-10-31T06:48:16.221Z,3.83
2022-10-31T06:50:43.770Z,4.40
2022-10-31T06:55:43.749Z,3.60
2022-10-31T06:58:12.063Z,4.45
2022-10-31T07:00:39.503Z,3.70
2022-10-31T07:03:10.765Z,2.50
2022-10-31T07:05:39.294Z,3.65
2022-10-31T07:08:09.554Z,4.22
2022-10-31T07:10:40.423Z,3.58
2022-10-31T07:13:13.055Z,3.92
2022-10-31T07:15:41.983Z,3.75
2022-10-31T07:18:11.648Z,3.53
2022-10-31T07:20:39.789Z,3.15
2022-10-31T07:23:07.206Z,2.40
2022-10-31T07:25:34.889Z,2.20
2022-10-31T07:28:02.699Z,1.80
2022-10-31T07:30:31.837Z,2.08
2022-10-31T07:32:59.384Z,2.40
2022-10-31T07:35:29.627Z,2.03
2022-10-31T07:37:57.731Z,2.20
2022-10-31T07:40:25.583Z,2.20
2022-10-31T07:42:54.155Z,1.60
2022-10-31T07:45:21.976Z,1.55
2022-10-31T07:47:54.838Z,1.20
2022-10-31T07:50:27.505Z,1.40
2022-10-31T07:53:17.935Z,1.30
2022-10-31T07:58:31.642Z,0.77
2022-10-31T08:01:00.727Z,0.82
2022-10-31T08:03:28.430Z,0.60
2022-10-31T08:05:59.409Z,0.98
2022-10-31T08:08:31.266Z,0.90
2022-10-31T08:11:04.263Z,0.60
2022-10-31T08:13:41.275Z,0.70
2022-10-31T08:16:11.163Z,0.93
2022-10-31T08:18:40.210Z,0.70
2022-10-31T08:21:16.397Z,0.70
2022-10-31T08:23:49.187Z,0.70
2022-10-31T08:26:27.881Z,0.60
2022-10-31T08:29:14.405Z,0.60
2022-10-31T08:31:49.640Z,0.57
2022-10-31T08:34:25.974Z,0.70
2022-10-31T08:37:00.979Z,0.77
2022-10-31T08:39:39.654Z,0.90
2022-10-31T08:42:07.308Z,0.70
2022-10-31T08:44:54.272Z,0.68
2022-10-31T08:47:34.134Z,1.08
2022-10-31T09:10:59.385Z,0.80
2022-10-31T09:13:29.448Z,0.80
2022-10-31T09:16:08.493Z,0.73
2022-10-31T09:23:02.986Z,0.50
2022-10-31T09:25:34.511Z,1.40
2022-10-31T09:28:03.659Z,0.70
2022-10-31T09:30:34.167Z,0.80
2022-10-31T09:33:05.176Z,0.70
2022-10-31T09:35:33.825Z,1.15
2022-10-31T09:38:03.788Z,1.20
2022-10-31T09:40:35.179Z,1.77
2022-10-31T09:43:32.328Z,1.00
2022-10-31T09:46:27.737Z,1.55
2022-10-31T09:49:20.123Z,1.30
2022-10-31T09:51:56.030Z,0.90
2022-10-31T09:54:46.715Z,0.60
2022-10-31T09:57:16.264Z,0.80
2022-10-31T09:59:45.501Z,1.00
2022-10-31T10:02:30.631Z,0.80
2022-10-31T10:05:05.118Z,0.90
2022-10-31T10:07:53.137Z,0.93
2022-10-31T10:10:42.356Z,0.70
2022-10-31T10:13:37.368Z,0.70
2022-10-31T10:16:34.615Z,1.65
2022-10-31T10:19:32.891Z,1.15
2022-10-31T10:22:10.447Z,1.02
2022-10-31T10:24:56.493Z,1.13
2022-10-31T10:27:50.577Z,1.00
2022-10-31T10:30:39.268Z,0.70
2022-10-31T10:33:16.141Z,0.60
2022-10-31T10:35:49.148Z,0.70
2022-10-31T10:38:23.911Z,2.33
2022-10-31T10:40:53.400Z,1.00
2022-10-31T10:43:28.198Z,1.30
2022-10-31T10:46:20.066Z,1.00
2022-10-31T10:49:20.476Z,0.80
2022-10-31T10:55:12.967Z,0.70
2022-10-31T10:57:51.238Z,0.98
2022-10-31T11:00:25.478Z,0.85
2022-10-31T11:02:53.742Z,1.20
2022-10-31T11:05:29.885Z,1.00
2022-10-31T11:07:58.312Z,1.48
2022-10-31T11:10:26.162Z,1.63
2022-10-31T11:13:00.845Z,0.73
2022-10-31T11:15:29.283Z,0.90
2022-10-31T11:17:57.333Z,1.02
2022-10-31T11:20:36.224Z,1.00
2022-10-31T11:23:19.845Z,1.02
2022-10-31T11:26:05.133Z,1.10
2022-10-31T11:28:36.104Z,1.10
2022-10-31T11:31:09.573Z,1.08
2022-10-31T11:36:33.545Z,1.20
2022-10-31T11:39:03.433Z,1.08
2022-10-31T11:41:36.067Z,1.08
2022-10-31T11:44:16.246Z,1.17
2022-10-31T11:46:47.734Z,1.30
2022-10-31T11:49:35.485Z,1.05
2022-10-31T11:52:29.322Z,0.98
2022-10-31T11:54:59.386Z,0.95
2022-10-31T11:57:30.065Z,1.20
2022-10-31T12:00:04.307Z,1.20
2022-10-31T12:02:32.145Z,1.35
2022-10-31T12:05:05.499Z,1.15
2022-10-31T12:07:32.908Z,1.00
2022-10-31T12:10:13.414Z,1.25
2022-10-31T12:13:18.941Z,1.20
2022-10-31T12:15:53.452Z,1.20
2022-10-31T12:18:54.639Z,1.05
2022-10-31T12:21:29.128Z,1.15
2022-10-31T12:24:15.509Z,1.23
2022-10-31T12:27:03.301Z,0.95
2022-10-31T12:29:38.900Z,1.13
2022-10-31T12:32:31.704Z,1.08
2022-10-31T12:35:30.002Z,1.05
2022-10-31T12:38:03.440Z,0.90
2022-10-31T12:44:16.038Z,1.00
2022-10-31T12:47:14.823Z,1.02
2022-10-31T12:50:19.685Z,1.98
2022-10-31T12:53:09.154Z,1.10
2022-10-31T12:55:50.146Z,1.13
2022-10-31T12:58:45.336Z,1.67
2022-10-31T13:01:28.927Z,0.90
2022-10-31T13:04:03.019Z,0.82
2022-10-31T13:06:44.656Z,1.17
2022-10-31T13:09:38.952Z,1.13
2022-10-31T13:12:11.355Z,1.00
2022-10-31T13:14:45.893Z,1.15
2022-10-31T13:17:25.595Z,0.85
2022-10-31T13:19:58.872Z,1.27
2022-10-31T13:22:32.622Z,0.95
2022-10-31T13:25:13.758Z,1.10
2022-10-31T13:27:55.428Z,0.93
2022-10-31T13:30:25.224Z,1.27
2022-10-31T13:33:06.832Z,0.88
2022-10-31T13:35:39.531Z,1.00
2022-10-31T13:38:18.954Z,1.13
2022-10-31T13:41:17.137Z,1.50
2022-10-31T13:44:00.471Z,1.55
2022-10-31T13:46:36.507Z,1.20
2022-10-31T13:49:04.815Z,1.35
2022-10-31T13:51:35.072Z,0.98
2022-10-31T13:54:24.933Z,2.40
2022-10-31T13:56:53.550Z,1.00
2022-10-31T13:59:27.337Z,1.05
2022-10-31T14:02:00.930Z,1.13
2022-10-31T14:04:39.618Z,1.00
2022-10-31T14:07:10.344Z,1.38
2022-10-31T14:10:07.828Z,1.33
2022-10-31T14:12:39.941Z,1.23
2022-10-31T14:15:27.550Z,1.20
2022-10-31T14:18:05.205Z,1.00
2022-10-31T14:20:44.181Z,1.83
2022-10-31T14:23:41.391Z,1.20
2022-10-31T14:26:31.067Z,1.30
2022-10-31T14:29:01.579Z,1.58
2022-10-31T14:31:35.953Z,1.30
2022-10-31T14:34:24.826Z,1.40
2022-10-31T14:37:06.141Z,1.92
2022-10-31T14:39:47.002Z,1.40
2022-10-31T14:42:53.212Z,1.80
2022-10-31T14:45:32.409Z,1.38
2022-10-31T14:48:24.799Z,1.60
2022-10-31T14:50:59.855Z,2.47
2022-10-31T14:53:50.994Z,1.60
2022-10-31T14:56:27.466Z,2.10
2022-10-31T14:59:00.802Z,1.95
2022-10-31T15:01:37.834Z,1.42
2022-10-31T15:04:23.677Z,1.92
2022-10-31T15:07:25.754Z,1.45
2022-10-31T15:10:04.794Z,1.95
2022-10-31T15:12:35.577Z,2.15
2022-10-31T15:15:23.780Z,1.83
2022-10-31T15:17:57.235Z,1.70
2022-10-31T15:20:38.706Z,1.55
2022-10-31T15:23:06.963Z,2.28
2022-10-31T15:25:36.108Z,2.00
2022-10-31T15:28:17.117Z,1.70
2022-10-31T15:31:04.135Z,1.58
2022-10-31T15:33:50.946Z,2.13
2022-10-31T15:36:29.858Z,2.00
2022-10-31T15:38:59.342Z,1.77
2022-10-31T15:41:54.553Z,1.83
2022-10-31T15:44:27.362Z,2.05
2022-10-31T15:52:41.033Z,2.22
2022-10-31T15:55:11.811Z,2.60
2022-10-31T15:57:44.237Z,2.40
2022-10-31T16:00:34.793Z,2.30
2022-10-31T16:06:05.895Z,2.50
2022-10-31T16:08:36.845Z,2.45
2022-10-31T16:11:08.398Z,2.55
2022-10-31T16:13:38.810Z,2.63
2022-10-31T16:16:34.018Z,3.25
2022-10-31T16:19:06.883Z,2.55
2022-10-31T16:21:39.869Z,3.00
2022-10-31T16:24:19.562Z,2.53
2022-10-31T16:29:43.933Z,2.83
2022-10-31T16:32:32.945Z,3.05
2022-10-31T16:35:13.370Z,3.63
2022-10-31T16:37:42.447Z,3.13
2022-10-31T16:40:20.119Z,2.53
2022-10-31T16:42:50.802Z,2.97
2022-10-31T16:45:23.035Z,2.45
2022-10-31T16:47:50.943Z,2.38
2022-10-31T16:50:22.926Z,2.22
2022-10-31T16:53:12.849Z,2.60
2022-10-31T16:55:54.232Z,2.72
2022-10-31T16:58:31.406Z,2.33
2022-10-31T17:01:02.295Z,2.65
2022-10-31T17:03:31.240Z,2.78
2022-10-31T17:05:58.587Z,2.92
2022-10-31T17:08:26.936Z,2.45
2022-10-31T17:10:58.561Z,2.67
2022-10-31T17:13:30.933Z,2.88
2022-10-31T17:16:02.972Z,2.85
2022-10-31T17:18:31.575Z,2.90
2022-10-31T17:21:00.660Z,3.17
2022-10-31T17:23:30.650Z,3.25
2022-10-31T17:25:58.271Z,3.10
2022-10-31T17:28:27.557Z,3.03
2022-10-31T17:30:56.147Z,2.60
2022-10-31T17:33:24.758Z,2.80
2022-10-31T17:35:52.353Z,3.08
2022-10-31T17:38:20.781Z,3.10
2022-10-31T17:43:30.591Z,2.85
2022-10-31T17:46:15.311Z,3.92
2022-10-31T18:46:54.361Z,3.40
2022-10-31T19:12:35.297Z,3.20
2022-10-31T19:15:02.666Z,2.83
2022-10-31T19:17:30.473Z,2.70
2022-10-31T19:19:58.900Z,2.67
2022-10-31T19:22:26.967Z,2.03
2022-10-31T19:24:54.527Z,2.55
2022-10-31T19:27:22.409Z,3.13
2022-10-31T19:30:03.188Z,2.72
2022-10-31T19:32:31.590Z,2.67
2022-10-31T19:35:01.665Z,3.60
2022-10-31T19:37:29.212Z,3.80
2022-10-31T19:39:58.612Z,3.42
2022-10-31T19:42:26.279Z,3.50
2022-10-31T19:44:56.043Z,3.63
2022-10-31T19:47:30.342Z,3.67
2022-10-31T19:49:58.902Z,3.83
2022-10-31T19:52:26.395Z,5.50
2022-10-31T19:54:54.860Z,5.75
2022-10-31T19:57:48.408Z,5.88
2022-10-31T20:00:11.313Z,4.22
2022-10-31T20:02:39.054Z,4.13
2022-10-31T20:05:14.156Z,4.05
2022-10-31T20:07:47.278Z,4.15
2022-10-31T20:10:14.938Z,4.03
2022-10-31T20:15:27.270Z,4.15
2022-10-31T20:17:56.765Z,4.18
2022-10-31T20:20:25.965Z,5.50
2022-10-31T20:22:55.224Z,5.18
2022-10-31T20:28:26.335Z,5.82
2022-10-31T20:30:55.116Z,6.07
2022-10-31T20:33:24.946Z,6.72
2022-10-31T20:35:52.697Z,5.35
2022-10-31T20:38:20.570Z,5.05
2022-10-31T20:40:48.202Z,7.65
2022-10-31T20:43:16.949Z,5.07
2022-10-31T20:45:45.127Z,6.10
2022-10-31T20:48:13.613Z,5.50
2022-10-31T20:50:41.150Z,4.82
2022-10-31T20:53:08.847Z,5.22
2022-10-31T20:55:48.363Z,5.85
2022-10-31T20:58:17.090Z,4.70
2022-10-31T21:00:45.752Z,6.05
2022-10-31T21:03:14.319Z,5.63
2022-10-31T21:05:42.505Z,6.13
2022-10-31T21:08:10.228Z,5.80
2022-10-31T21:10:39.154Z,8.55
2022-10-31T21:13:07.603Z,5.90
2022-10-31T21:15:34.923Z,6.88
2022-10-31T21:18:03.856Z,7.60
2022-10-31T21:20:31.473Z,8.25
2022-10-31T21:23:01.692Z,9.38
2022-10-31T21:25:29.367Z,9.30
2022-10-31T21:27:56.788Z,10.77
2022-10-31T21:30:24.343Z,13.75
2022-10-31T21:32:52.434Z,12.88
2022-10-31T21:35:19.905Z,12.23
2022-10-31T21:37:47.990Z,12.32
2022-10-31T21:40:15.585Z,11.47
2022-10-31T21:42:43.700Z,12.50
2022-10-31T21:45:11.044Z,11.90
2022-10-31T21:47:39.056Z,12.73
2022-10-31T21:50:06.866Z,11.97
2022-10-31T21:52:34.641Z,11.30
2022-10-31T21:55:01.937Z,12.48
2022-10-31T21:57:33.041Z,14.40
2022-10-31T22:00:00.719Z,12.70
2022-10-31T22:02:28.084Z,10.80
2022-10-31T22:04:55.387Z,11.60
2022-10-31T22:07:22.720Z,11.60
2022-10-31T22:09:51.153Z,13.50
2022-10-31T22:12:19.134Z,11.30
2022-10-31T22:14:48.445Z,12.43
2022-10-31T22:17:16.356Z,13.07
2022-10-31T22:19:44.289Z,14.23
2022-10-31T22:22:17.428Z,10.73
2022-10-31T22:24:47.900Z,10.63
2022-10-31T22:27:15.408Z,9.73
2022-10-31T22:29:45.516Z,10.13
2022-10-31T22:32:12.780Z,9.47
2022-10-31T22:34:41.006Z,9.03
2022-10-31T22:37:09.036Z,9.67
2022-10-31T22:39:39.672Z,7.87
2022-10-31T22:42:08.399Z,8.13
2022-10-31T22:44:35.846Z,7.50
2022-10-31T22:47:03.337Z,7.43
2022-10-31T22:49:31.485Z,6.57
2022-10-31T22:52:03.082Z,6.37
2022-10-31T22:54:31.301Z,6.70
2022-10-31T22:56:58.555Z,7.00
2022-10-31T22:59:25.953Z,5.87
2022-10-31T23:01:54.452Z,5.90
2022-10-31T23:04:22.539Z,10.23
2022-10-31T23:06:55.797Z,7.40
2022-10-31T23:09:23.255Z,5.47
2022-10-31T23:11:50.539Z,5.87
2022-10-31T23:14:23.006Z,5.90
2022-10-31T23:16:55.073Z,5.47
2022-10-31T23:19:27.442Z,5.83
2022-10-31T23:22:04.956Z,4.77
2022-10-31T23:24:38.792Z,6.00
2022-10-31T23:27:30.451Z,4.73
2022-10-31T23:29:59.539Z,4.73
2022-10-31T23:32:35.256Z,5.20
2022-10-31T23:35:05.603Z,5.20
2022-10-31T23:37:35.334Z,6.33
2022-10-31T23:40:03.883Z,3.93
2022-10-31T23:42:31.279Z,3.63
2022-10-31T23:44:58.670Z,3.37
2022-10-31T23:47:31.419Z,3.60
2022-10-31T23:50:01.167Z,3.00
2022-10-31T23:52:29.211Z,3.43
2022-10-31T23:54:56.696Z,3.25
2022-10-31T23:57:24.184Z,3.07
